ADDS METAR Data INFO
IDs: Format: Raw Decoded Include TAF

Data at: 1053 UTC 18 Aug 2017

KE38 181035Z AUTO 21006KT 10SM CLR 21/16 A3018 RMK AO2 T02120156
KE38 181015Z AUTO 22010KT 10SM CLR 22/15 A3019 RMK AO2 T02200154
KE38 180955Z AUTO 22005KT 10SM CLR 22/16 A3019 RMK AO2 T02200155
KE38 180935Z AUTO 21003KT 10SM CLR 22/15 A3019 RMK AO2 T02190153
KE38 180915Z AUTO 23004KT 10SM CLR 22/15 A3019 RMK AO2 T02190149
KE38 180855Z AUTO 00000KT 10SM CLR 21/15 A3020 RMK AO2 T02080149
KE38 180835Z AUTO 34003KT 10SM CLR 20/15 A3021 RMK AO2 T02030154
KE38 180815Z AUTO 00000KT 10SM CLR 22/15 A3020 RMK AO2 T02220146
KE38 180755Z AUTO 00000KT 10SM CLR 22/15 A3020 RMK AO2 T02230145
KE38 180735Z AUTO 29003KT 10SM CLR 22/15 A3021 RMK AO2 T02150154
KE38 180715Z AUTO 00000KT 10SM CLR 21/16 A3022 RMK AO2 T02050161
KE38 180655Z AUTO 00000KT 10SM CLR 21/16 A3023 RMK AO2 T02070160
KE38 180635Z AUTO 23003KT 10SM CLR 21/16 A3024 RMK AO2 T02090158
KE38 180615Z AUTO 19003KT 10SM CLR 21/16 A3024 RMK AO2 T02110156
KE38 180555Z AUTO 25004KT 10SM CLR 21/16 A3025 RMK AO2 T02050155 10222 20194 403170183
KE38 180535Z AUTO 00000KT 10SM CLR 20/15 A3025 RMK AO2 T01990153
KE38 180515Z AUTO 25005KT 10SM CLR 20/15 A3025 RMK AO2 T01980150
KE38 180455Z AUTO 25003KT 10SM CLR 20/15 A3026 RMK AO2 T01970153
KE38 180435Z AUTO 28004KT 10SM SCT120 21/15 A3025 RMK AO2 T02100148
KE38 180415Z AUTO 00000KT 10SM SCT120 21/15 A3025 RMK AO2 T02110149
KE38 180355Z AUTO 00000KT 10SM SCT120 21/15 A3026 RMK AO2 T02110148
KE38 180335Z AUTO 00000KT 10SM SCT120 21/15 A3025 RMK AO2 T02120148
KE38 180315Z AUTO 10005KT 10SM SCT120 21/16 A3024 RMK AO2 LTG DSNT S T02050157
KE38 180255Z AUTO 00000KT 10SM SCT120 21/15 A3022 RMK AO2 T02100148
KE38 180235Z AUTO 25006KT 10SM BKN120 21/15 A3021 RMK AO2 T02110150
KE38 180215Z AUTO 00000KT 10SM SCT120 21/15 A3021 RMK AO2 T02130149
KE38 180155Z AUTO 23004KT 10SM CLR 21/15 A3020 RMK AO2 LTG DSNT NE T02080151
KE38 180135Z AUTO 19007KT 10SM SCT120 21/15 A3020 RMK AO2 T02080154
KE38 180115Z AUTO 20008KT 7SM SCT042 SCT049 OVC120 21/17 A3020 RMK AO2 LTG DSNT SW T02050165
KE38 180055Z AUTO 20011KT 10SM SCT047 SCT060 OVC110 21/17 A3021 RMK AO2 LTG DSNT SW T02050172
KE38 180035Z AUTO 22010KT 10SM BKN120 21/16 A3022 RMK AO2 T02080161
KE38 180015Z AUTO 23009KT 10SM SCT120 22/17 A3022 RMK AO2 T02190168
KE38 172355Z AUTO 19011KT 10SM VCTS CLR 22/17 A3021 RMK AO2 LTG DSNT SW T02210167 10309 20220
KE38 172335Z AUTO 18009KT 10SM CLR 22/16 A3021 RMK AO2 LTG DSNT E THRU SW T02230161
KE38 172315Z AUTO 19011KT 10SM CLR 24/15 A3021 RMK AO2 LTG DSNT SE THRU W T02370151
KE38 172255Z AUTO 21009KT 10SM SCT120 24/15 A3020 RMK AO2 LTG DSNT E THRU SW T02400150
KE38 172235Z AUTO 20010KT 10SM VCTS BKN120 25/16 A3019 RMK AO2 LTG DSNT ALQS T02490158
KE38 172215Z AUTO 21008KT 10SM VCTS BKN120 25/15 A3019 RMK AO2 LTG DSNT ALQS T02540153
KE38 172155Z AUTO 22007KT 10SM TS SCT120 26/17 A3017 RMK AO2 LTG DSNT E THRU SW T02580165
KE38 172135Z AUTO 00000KT 10SM CLR 27/14 A3018 RMK AO2 LTG DSNT ALQS T02730137
KE38 172115Z AUTO 32004KT 10SM VCTS CLR 28/15 A3019 RMK AO2 LTG DSNT ALQS T02760145
KE38 172055Z AUTO 34010KT 10SM CLR 27/16 A3020 RMK AO2 LTG DSNT SE THRU W T02720160
KE38 172035Z AUTO 34008KT 10SM CLR 23/17 A3022 RMK AO2 LTG DSNT SE T02310171
KE38 172015Z AUTO 35010KT 10SM SCT048 SCT060 SCT120 23/16 A3023 RMK AO2 LTG DSNT NE THRU S T02300164
KE38 171955Z AUTO 29003KT 10SM VCTS SCT044 BKN060 OVC110 23/18 A3021 RMK AO2 LTG DSNT ALQS T02320176
KE38 171935Z AUTO 25004KT 10SM TS SCT040 SCT075 OVC110 23/17 A3021 RMK AO2 LTG DSNT ALQS T02250167
KE38 171915Z AUTO 32006G10KT 10SM TS SCT065 BKN075 OVC110 22/15 A3024 RMK AO2 LTG DSNT ALQS T02240153
KE38 171855Z AUTO 24015G27KT 10SM TS BKN065 BKN075 BKN110 23/15 A3024 RMK AO2 LTG DSNT ALQS T02260148
KE38 171835Z AUTO 23012G18KT 10SM TS SCT065 SCT075 BKN100 27/14 A3022 RMK AO2 LTG DSNT NE AND SW T02650143
KE38 171815Z AUTO 20004KT 10SM SCT065 BKN100 30/14 A3022 RMK AO2 LTG DSNT S T03000140
KE38 171755Z AUTO 00000KT 10SM SCT065 31/14 A3023 RMK AO2 T03080142 10317 20183
KE38 171735Z AUTO 28005KT 10SM CLR 31/15 A3023 RMK AO2 LTG DSNT S T03120146
KE38 171715Z AUTO 23008KT 10SM CLR 30/15 A3023 RMK AO2 T03040148
KE38 171655Z AUTO 20003KT 10SM SCT120 31/15 A3024 RMK AO2 LTG DSNT SW T03050149
KE38 171635Z AUTO 25007KT 10SM SCT120 30/15 A3024 RMK AO2 T03000148
KE38 171615Z AUTO 24006KT 10SM CLR 30/15 A3024 RMK AO2 T02950151
KE38 171555Z AUTO 26008KT 10SM SCT120 29/15 A3024 RMK AO2 T02910150
KE38 171535Z AUTO 21003KT 7SM BKN120 28/15 A3024 RMK AO2 T02760150
KE38 171515Z AUTO 26004KT 10SM OVC120 27/16 A3023 RMK AO2 T02680155
KE38 171455Z AUTO 22004KT 10SM BKN120 27/15 A3023 RMK AO2 T02690152
KE38 171435Z AUTO 23004KT 10SM SCT120 27/15 A3022 RMK AO2 T02670149
KE38 171415Z AUTO 20007KT 10SM CLR 26/15 A3022 RMK AO2 T02610148
KE38 171355Z AUTO 22004KT 10SM CLR 25/15 A3023 RMK AO2 T02510150
KE38 171335Z AUTO 26004KT 10SM CLR 23/16 A3023 RMK AO2 T02330155
KE38 171315Z AUTO 22005KT 10SM CLR 21/16 A3021 RMK AO2 T02130155
KE38 171255Z AUTO 23005KT 10SM CLR 20/15 A3021 RMK AO2 T01970152
KE38 171235Z AUTO 23007KT 10SM CLR 20/15 A3021 RMK AO2 T01950152
KE38 171215Z AUTO 24005KT 10SM CLR 20/15 A3021 RMK AO2 T01950152
KE38 171155Z AUTO 22003KT 10SM CLR 19/15 A3020 RMK AO2 T01870148 10230 20187
KE38 171135Z AUTO 22005KT 10SM CLR 19/15 A3020 RMK AO2 T01900148
KE38 171115Z AUTO 23004KT 10SM CLR 20/15 A3019 RMK AO2 T02000150
KE38 171055Z AUTO 24004KT 10SM CLR 20/15 A3019 RMK AO2 T01950148
KE38 171035Z AUTO 20003KT 10SM CLR 19/15 A3017 RMK AO2 T01920146
KE38 171015Z AUTO 23006KT 10SM CLR 20/15 A3017 RMK AO2 T02000146
KE38 170955Z AUTO 22006KT 10SM CLR 21/15 A3017 RMK AO2 T02080148
KE38 170935Z AUTO 24005KT 10SM CLR 21/15 A3017 RMK AO2 T02070145
KE38 170915Z AUTO 23005KT 10SM CLR 20/14 A3018 RMK AO2 T02000141
KE38 170855Z AUTO 22005KT 10SM CLR 21/14 A3018 RMK AO2 T02050140
KE38 170835Z AUTO 21006KT 10SM CLR 20/14 A3018 RMK AO2 T02010138
KE38 170815Z AUTO 19005KT 10SM CLR 21/14 A3019 RMK AO2 T02140137
KE38 170755Z AUTO 21003KT 10SM CLR 21/14 A3019 RMK AO2 T02050135
KE38 170735Z AUTO 22006KT 10SM SCT120 22/13 A3019 RMK AO2 T02180133
KE38 170715Z AUTO 24006KT 10SM SCT120 22/13 A3019 RMK AO2 T02200132
KE38 170655Z AUTO 23006KT 10SM CLR 22/13 A3018 RMK AO2 T02210130
KE38 170635Z AUTO 24007KT 10SM CLR 23/13 A3018 RMK AO2 T02300129
KE38 170615Z AUTO 23007KT 10SM SCT120 23/12 A3018 RMK AO2 T02270123
KE38 170555Z AUTO 24006KT 10SM SCT120 22/12 A3018 RMK AO2 T02240120 10281 20218 403360215
KE38 170535Z AUTO 25005KT 10SM SCT120 24/13 A3018 RMK AO2 T02370131
KE38 170515Z AUTO 23004KT 10SM SCT120 24/13 A3017 RMK AO2 T02390130
KE38 170455Z AUTO 23004KT 10SM CLR 23/13 A3017 RMK AO2 T02250127
KE38 170435Z AUTO 26007KT 10SM CLR 22/13 A3017 RMK AO2 T02190127
KE38 170415Z AUTO 23005KT 10SM CLR 22/13 A3017 RMK AO2 LTG DSNT NE T02210125
KE38 170355Z AUTO 24005KT 10SM CLR 22/13 A3017 RMK AO2 T02220130
KE38 170335Z AUTO 25006KT 10SM CLR 23/13 A3017 RMK AO2 T02280125
KE38 170315Z AUTO 22006KT 10SM CLR 24/13 A3016 RMK AO2 T02390127
KE38 170255Z AUTO 22007KT 10SM CLR 24/13 A3015 RMK AO2 T02370130
KE38 170235Z AUTO 21007KT 10SM CLR 24/13 A3015 RMK AO2 T02410131
KE38 170215Z AUTO 20007KT 10SM CLR 24/13 A3013 RMK AO2 T02400133
KE38 170155Z AUTO 21008KT 10SM CLR 24/14 A3013 RMK AO2 LTG DSNT S T02420138
KE38 170135Z AUTO 19009KT 10SM CLR 25/14 A3013 RMK AO2 T02510137
KE38 170115Z AUTO 19008KT 10SM CLR 26/14 A3013 RMK AO2 T02590140
KE38 170055Z AUTO 18008KT 10SM CLR 27/14 A3013 RMK AO2 T02680139
KE38 170035Z AUTO 18010KT 10SM CLR 27/14 A3012 RMK AO2 T02680143
KE38 170015Z AUTO 17012G18KT 10SM SCT110 27/14 A3013 RMK AO2 T02680137
KE38 162355Z AUTO 17013G19KT 10SM OVC100 28/14 A3013 RMK AO2 T02770137 10336 20276
KE38 162335Z AUTO 16013G16KT 10SM OVC100 28/14 A3012 RMK AO2 LTG DSNT E THRU S T02810137
KE38 162315Z AUTO 16010KT 10SM OVC100 29/13 A3012 RMK AO2 LTG DSNT E AND SE T02880132
KE38 162255Z AUTO 15008KT 10SM OVC100 31/10 A3011 RMK AO2 LTG DSNT E T03110104